createdAt,value
2022-12-23T00:01:15.651Z,8.85
2022-12-23T00:03:43.677Z,10.68
2022-12-23T00:06:13.479Z,12.98
2022-12-23T00:08:41.704Z,11.35
2022-12-23T00:11:16.079Z,14.10
2022-12-23T00:14:02.510Z,13.13
2022-12-23T00:16:29.848Z,12.90
2022-12-23T00:18:57.463Z,12.02
2022-12-23T00:21:24.555Z,14.93
2022-12-23T00:23:52.064Z,12.93
2022-12-23T00:26:27.210Z,11.25
2022-12-23T00:28:58.651Z,12.38
2022-12-23T00:31:26.146Z,10.88
2022-12-23T00:33:54.377Z,15.63
2022-12-23T00:36:29.649Z,12.18
2022-12-23T00:39:17.422Z,12.50
2022-12-23T00:42:04.437Z,11.48
2022-12-23T00:44:32.046Z,12.70
2022-12-23T00:46:59.560Z,13.15
2022-12-23T00:49:41.875Z,16.60
2022-12-23T00:52:12.502Z,14.65
2022-12-23T00:54:39.818Z,13.80
2022-12-23T00:57:07.612Z,14.98
2022-12-23T00:59:35.172Z,14.07
2022-12-23T01:02:21.972Z,16.17
2022-12-23T01:05:07.829Z,16.17
2022-12-23T01:07:35.342Z,17.10
2022-12-23T01:10:02.459Z,18.27
2022-12-23T01:12:29.913Z,21.75
2022-12-23T01:14:57.097Z,17.58
2022-12-23T01:17:24.593Z,16.92
2022-12-23T01:19:51.684Z,18.90
2022-12-23T01:22:19.128Z,15.30
2022-12-23T01:24:46.242Z,19.25
2022-12-23T01:27:13.645Z,15.82
2022-12-23T01:29:40.799Z,14.02
2022-12-23T01:32:08.283Z,18.40
2022-12-23T01:34:37.437Z,17.95
2022-12-23T01:37:05.806Z,15.05
2022-12-23T01:39:32.980Z,17.23
2022-12-23T01:42:18.818Z,19.95
2022-12-23T01:44:50.084Z,21.52
2022-12-23T01:47:23.636Z,17.55
2022-12-23T01:49:55.912Z,17.05
2022-12-23T01:52:23.807Z,18.45
2022-12-23T01:54:51.388Z,19.77
2022-12-23T01:57:19.198Z,19.02
2022-12-23T02:00:05.051Z,15.90
2022-12-23T02:02:55.372Z,16.05
2022-12-23T02:08:10.869Z,20.55
2022-12-23T02:11:06.356Z,17.73
2022-12-23T02:13:36.402Z,23.13
2022-12-23T02:16:17.507Z,17.48
2022-12-23T02:19:10.474Z,17.60
2022-12-23T02:21:40.431Z,19.70
2022-12-23T02:24:56.640Z,19.35
2022-12-23T02:27:29.589Z,19.20
2022-12-23T02:30:06.093Z,18.50
2022-12-23T02:33:01.238Z,23.58
2022-12-23T02:35:56.821Z,24.80
2022-12-23T02:38:27.885Z,18.42
2022-12-23T02:41:26.952Z,20.42
2022-12-23T02:44:02.689Z,21.23
2022-12-23T02:46:38.249Z,21.05
2022-12-23T02:49:13.845Z,18.25
2022-12-23T02:51:46.706Z,21.63
2022-12-23T02:54:31.552Z,21.17
2022-12-23T02:57:03.060Z,20.60
2022-12-23T02:59:46.475Z,19.35
2022-12-23T03:02:13.906Z,20.45
2022-12-23T03:04:42.299Z,19.63
2022-12-23T03:07:35.431Z,21.70
2022-12-23T03:10:20.417Z,20.17
2022-12-23T03:12:50.427Z,19.52
2022-12-23T03:15:33.345Z,20.90
2022-12-23T03:18:28.525Z,25.02
2022-12-23T03:21:16.259Z,19.23
2022-12-23T03:23:55.383Z,18.15
2022-12-23T03:26:38.588Z,19.10
2022-12-23T03:29:13.931Z,23.80
2022-12-23T03:31:42.919Z,24.02
2022-12-23T03:34:18.852Z,16.55
2022-12-23T03:36:56.750Z,18.35
2022-12-23T03:39:31.120Z,20.95
2022-12-23T03:42:20.374Z,19.42
2022-12-23T03:45:19.289Z,22.63
2022-12-23T03:50:17.493Z,55.03
2022-12-23T03:52:55.928Z,39.17
2022-12-23T03:55:33.385Z,30.00
2022-12-23T03:58:32.799Z,33.22
2022-12-23T04:01:23.598Z,28.48
2022-12-23T04:03:58.644Z,35.70
2022-12-23T04:06:30.981Z,33.72
2022-12-23T04:08:58.831Z,30.13
2022-12-23T04:11:26.167Z,29.17
2022-12-23T04:13:53.555Z,32.65
2022-12-23T04:16:21.110Z,34.05
2022-12-23T04:18:48.170Z,33.85
2022-12-23T04:21:15.529Z,34.50
2022-12-23T04:23:42.539Z,30.13
2022-12-23T04:26:09.933Z,39.20
2022-12-23T04:28:36.926Z,36.13
2022-12-23T04:31:04.472Z,33.78
2022-12-23T04:33:31.642Z,36.50
2022-12-23T04:36:02.026Z,36.38
2022-12-23T04:38:29.182Z,37.70
2022-12-23T04:40:56.495Z,34.03
2022-12-23T04:43:23.591Z,36.38
2022-12-23T04:45:51.866Z,33.22
2022-12-23T04:48:19.494Z,33.65
2022-12-23T04:50:46.855Z,34.33
2022-12-23T04:53:13.929Z,34.50
2022-12-23T04:55:41.212Z,26.65
2022-12-23T04:58:08.345Z,34.75
2022-12-23T05:00:39.488Z,30.90
2022-12-23T05:03:07.343Z,32.65
2022-12-23T05:05:34.776Z,32.97
2022-12-23T05:08:05.829Z,35.35
2022-12-23T05:10:33.352Z,28.25
2022-12-23T05:13:00.501Z,27.13
2022-12-23T05:15:27.813Z,29.48
2022-12-23T05:17:54.933Z,27.40
2022-12-23T05:20:22.298Z,32.05
2022-12-23T05:22:49.279Z,31.40
2022-12-23T05:25:16.796Z,34.92
2022-12-23T05:27:43.891Z,35.55
2022-12-23T05:30:11.581Z,33.92
2022-12-23T05:32:39.347Z,33.45
2022-12-23T05:35:07.073Z,33.10
2022-12-23T05:37:34.089Z,31.75
2022-12-23T05:40:01.431Z,32.35
2022-12-23T05:42:28.620Z,31.00
2022-12-23T05:44:56.038Z,28.85
2022-12-23T05:47:23.128Z,28.45
2022-12-23T05:49:50.690Z,38.70
2022-12-23T05:52:17.637Z,38.78
2022-12-23T05:54:44.913Z,36.33
2022-12-23T05:57:12.091Z,36.08
2022-12-23T05:59:39.540Z,30.52
2022-12-23T06:02:06.695Z,27.23
2022-12-23T06:04:34.236Z,34.50
2022-12-23T06:07:01.302Z,30.35
2022-12-23T06:09:28.637Z,39.08
2022-12-23T06:11:55.753Z,32.50
2022-12-23T06:14:28.556Z,30.40
2022-12-23T06:16:56.434Z,32.75
2022-12-23T06:19:24.199Z,32.10
2022-12-23T06:21:51.255Z,35.28
2022-12-23T06:24:18.572Z,35.35
2022-12-23T06:26:45.833Z,38.83
2022-12-23T06:29:13.254Z,36.13
2022-12-23T06:31:40.365Z,33.90
2022-12-23T06:34:07.638Z,33.35
2022-12-23T06:36:34.800Z,29.20
2022-12-23T06:39:02.122Z,27.13
2022-12-23T06:41:29.183Z,29.58
2022-12-23T06:43:56.693Z,33.47
2022-12-23T06:46:23.852Z,31.48
2022-12-23T06:48:51.415Z,27.67
2022-12-23T06:51:18.837Z,28.85
2022-12-23T06:53:46.222Z,27.27
2022-12-23T06:56:13.345Z,25.98
2022-12-23T06:58:40.751Z,31.98
2022-12-23T07:01:09.995Z,39.40
2022-12-23T07:06:05.076Z,30.15
2022-12-23T07:08:32.388Z,23.17
2022-12-23T07:11:00.375Z,27.65
2022-12-23T07:13:27.794Z,27.40
2022-12-23T07:15:55.333Z,28.52
2022-12-23T07:18:23.701Z,32.63
2022-12-23T07:20:51.624Z,27.33
2022-12-23T07:23:18.989Z,28.80
2022-12-23T07:25:46.086Z,24.63
2022-12-23T07:28:13.470Z,27.02
2022-12-23T07:30:40.527Z,24.95
2022-12-23T07:33:07.959Z,28.05
2022-12-23T07:35:35.308Z,30.50
2022-12-23T07:38:02.837Z,26.83
2022-12-23T07:40:29.848Z,34.13
2022-12-23T07:42:58.904Z,26.30
2022-12-23T07:45:27.786Z,23.23
2022-12-23T07:47:56.544Z,30.88
2022-12-23T07:50:24.604Z,30.15
2022-12-23T07:52:53.409Z,29.23
2022-12-23T07:55:21.038Z,28.60
2022-12-23T07:57:49.775Z,29.40
2022-12-23T08:00:18.206Z,39.05
2022-12-23T08:02:46.606Z,33.90
2022-12-23T08:05:14.958Z,33.83
2022-12-23T08:07:45.005Z,24.33
2022-12-23T08:10:13.095Z,29.85
2022-12-23T08:12:40.438Z,38.40
2022-12-23T08:15:08.138Z,35.45
2022-12-23T08:17:35.509Z,41.65
2022-12-23T08:20:02.727Z,32.40
2022-12-23T08:22:31.970Z,31.92
2022-12-23T08:24:59.766Z,32.72
2022-12-23T08:27:27.516Z,45.20
2022-12-23T08:29:55.320Z,40.95
2022-12-23T08:32:25.425Z,32.10
2022-12-23T08:34:52.584Z,39.38
2022-12-23T08:37:20.119Z,33.53
2022-12-23T08:39:47.372Z,31.80
2022-12-23T08:42:15.881Z,39.10
2022-12-23T08:44:43.015Z,33.45
2022-12-23T08:47:10.429Z,28.30
2022-12-23T08:49:37.498Z,31.02
2022-12-23T08:52:04.986Z,29.45
2022-12-23T08:54:32.095Z,39.80
2022-12-23T08:56:59.868Z,34.38
2022-12-23T08:59:27.042Z,32.47
2022-12-23T09:01:54.722Z,36.45
2022-12-23T09:04:21.973Z,33.50
2022-12-23T09:06:49.496Z,35.42
2022-12-23T09:09:16.717Z,37.15
2022-12-23T09:11:44.576Z,32.28
2022-12-23T09:14:12.130Z,35.40
2022-12-23T09:16:39.854Z,40.08
2022-12-23T09:19:07.798Z,32.70
2022-12-23T09:21:35.483Z,34.83
2022-12-23T09:24:02.611Z,34.20
2022-12-23T09:26:31.384Z,37.70
2022-12-23T09:28:59.321Z,33.22
2022-12-23T09:31:34.090Z,38.85
2022-12-23T09:34:04.057Z,32.47
2022-12-23T09:36:31.910Z,31.15
2022-12-23T09:38:59.420Z,41.03
2022-12-23T09:41:42.872Z,31.33
2022-12-23T09:44:53.761Z,39.13
2022-12-23T09:47:25.389Z,38.28
2022-12-23T09:49:57.411Z,41.10
2022-12-23T09:52:37.657Z,38.92
2022-12-23T09:57:45.660Z,33.83
2022-12-23T10:00:18.623Z,47.22
2022-12-23T10:02:58.536Z,37.67
2022-12-23T10:05:38.153Z,171.13
2022-12-23T10:10:57.019Z,54.88
2022-12-23T10:13:45.329Z,74.20
2022-12-23T10:16:29.939Z,30.63
2022-12-23T10:19:02.946Z,33.50
2022-12-23T10:21:32.416Z,34.65
2022-12-23T10:24:05.285Z,81.97
2022-12-23T10:26:40.063Z,69.22
2022-12-23T10:29:30.227Z,75.70
2022-12-23T10:35:39.656Z,74.80
2022-12-23T10:38:23.612Z,34.08
2022-12-23T10:41:10.708Z,31.63
2022-12-23T10:43:47.423Z,30.88
2022-12-23T10:46:46.370Z,26.10
2022-12-23T10:49:20.322Z,39.58
2022-12-23T10:52:18.129Z,26.35
2022-12-23T10:54:47.722Z,34.78
2022-12-23T10:57:18.563Z,31.30
2022-12-23T10:59:46.667Z,30.33
2022-12-23T11:02:15.198Z,29.75
2022-12-23T11:04:55.357Z,32.08
2022-12-23T11:07:46.641Z,37.45
2022-12-23T11:10:20.980Z,28.25
2022-12-23T11:12:51.810Z,31.90
2022-12-23T11:15:35.058Z,31.75
2022-12-23T11:18:07.301Z,33.72
2022-12-23T11:20:36.512Z,29.52
2022-12-23T11:23:05.991Z,33.00
2022-12-23T11:25:41.280Z,40.87
2022-12-23T11:28:11.824Z,34.15
2022-12-23T11:30:56.863Z,27.52
2022-12-23T11:33:31.372Z,31.88
2022-12-23T11:36:24.283Z,32.42
2022-12-23T11:39:09.707Z,32.63
2022-12-23T11:41:43.687Z,28.88
2022-12-23T11:44:20.326Z,35.28
2022-12-23T11:46:48.407Z,34.92
2022-12-23T11:49:20.596Z,29.67
2022-12-23T11:52:02.933Z,32.75
2022-12-23T11:54:31.323Z,32.22
2022-12-23T11:56:59.233Z,29.55
2022-12-23T11:59:31.853Z,30.33
2022-12-23T12:02:02.588Z,29.00
2022-12-23T12:04:34.678Z,31.02
2022-12-23T12:07:04.364Z,33.53
2022-12-23T12:12:16.608Z,27.65
2022-12-23T12:14:52.898Z,30.70
2022-12-23T12:17:23.277Z,28.48
2022-12-23T12:20:00.508Z,34.35
2022-12-23T12:22:36.681Z,33.50
2022-12-23T12:25:39.513Z,31.33
2022-12-23T12:28:14.013Z,34.45
2022-12-23T12:30:54.223Z,34.13
2022-12-23T12:36:18.787Z,32.03
2022-12-23T12:38:49.112Z,37.30
2022-12-23T12:41:23.150Z,28.90
2022-12-23T12:44:03.703Z,33.88
2022-12-23T12:46:37.969Z,33.35
2022-12-23T12:49:17.205Z,36.30
2022-12-23T12:52:13.990Z,35.28
2022-12-23T12:54:47.141Z,29.63
2022-12-23T12:57:17.777Z,27.92
2022-12-23T12:59:45.768Z,27.02
2022-12-23T13:02:25.015Z,30.70
2022-12-23T13:05:17.118Z,31.10
2022-12-23T13:08:12.722Z,30.73
2022-12-23T13:10:56.997Z,27.63
2022-12-23T13:13:45.662Z,45.65
2022-12-23T13:16:34.485Z,39.15
2022-12-23T13:19:33.395Z,40.67
2022-12-23T13:22:17.078Z,30.05
2022-12-23T13:25:12.532Z,29.05
2022-12-23T13:28:05.845Z,32.05
2022-12-23T13:30:46.354Z,33.60
2022-12-23T13:33:33.772Z,30.33
2022-12-23T13:36:22.290Z,30.20
2022-12-23T13:39:06.652Z,31.52
2022-12-23T13:41:42.396Z,27.58
2022-12-23T13:44:11.400Z,37.08
2022-12-23T13:47:06.575Z,33.28
2022-12-23T13:49:54.822Z,40.65
2022-12-23T13:52:34.228Z,37.53
2022-12-23T13:55:39.053Z,39.47
2022-12-23T13:58:18.531Z,37.58
2022-12-23T14:00:46.262Z,39.75
2022-12-23T14:03:20.030Z,50.83
2022-12-23T14:05:50.699Z,41.97
2022-12-23T14:08:18.387Z,47.97
2022-12-23T14:11:00.808Z,54.47
2022-12-23T14:13:32.988Z,47.38
2022-12-23T14:16:18.430Z,62.13
2022-12-23T14:18:49.174Z,48.85
2022-12-23T14:21:38.865Z,39.65
2022-12-23T14:26:59.861Z,61.67
2022-12-23T14:29:30.259Z,66.47
2022-12-23T14:34:30.348Z,51.92
2022-12-23T14:37:25.706Z,41.88
2022-12-23T14:39:53.405Z,46.78
2022-12-23T14:42:43.154Z,42.85
2022-12-23T14:45:41.415Z,54.50
2022-12-23T14:48:33.805Z,56.72
2022-12-23T14:51:35.593Z,61.78
2022-12-23T14:54:02.783Z,52.55
2022-12-23T14:56:39.035Z,52.78
2022-12-23T14:59:16.026Z,51.53
2022-12-23T15:01:52.901Z,51.53
2022-12-23T15:04:30.647Z,56.60
2022-12-23T15:07:15.211Z,53.40
2022-12-23T15:10:00.503Z,60.72
2022-12-23T15:12:33.155Z,74.18
2022-12-23T15:15:04.699Z,69.22
2022-12-23T15:17:37.031Z,63.47
2022-12-23T15:20:10.846Z,53.78
2022-12-23T15:22:39.797Z,61.03
2022-12-23T15:25:19.529Z,63.85
2022-12-23T15:27:49.004Z,67.35
2022-12-23T15:30:17.885Z,78.95
2022-12-23T15:32:48.370Z,78.35
2022-12-23T15:35:32.484Z,84.72
2022-12-23T15:38:02.181Z,81.97
2022-12-23T15:40:36.769Z,86.03
2022-12-23T15:43:18.205Z,105.75
2022-12-23T15:45:47.659Z,74.05
2022-12-23T15:48:29.848Z,63.85
2022-12-23T15:51:05.434Z,83.50
2022-12-23T15:53:37.214Z,67.38
2022-12-23T15:56:09.198Z,71.47
2022-12-23T15:58:40.486Z,70.05
2022-12-23T16:01:13.805Z,74.28
2022-12-23T16:03:44.950Z,74.57
2022-12-23T16:06:24.494Z,68.43
2022-12-23T16:09:01.747Z,124.07
2022-12-23T16:12:04.470Z,141.55
2022-12-23T16:14:34.910Z,64.75
2022-12-23T16:17:14.241Z,77.63
2022-12-23T16:19:51.802Z,102.45
2022-12-23T16:22:33.848Z,80.10
2022-12-23T16:25:33.093Z,72.13
2022-12-23T16:28:08.267Z,94.85
2022-12-23T16:30:42.045Z,125.95
2022-12-23T16:33:26.573Z,118.43
2022-12-23T16:35:56.178Z,259.52
2022-12-23T16:38:27.995Z,156.52
2022-12-23T16:40:57.725Z,161.10
2022-12-23T16:43:25.897Z,74.72
2022-12-23T16:45:57.711Z,56.45
2022-12-23T16:48:36.295Z,49.40
2022-12-23T16:51:11.263Z,59.33
2022-12-23T16:53:38.937Z,66.57
2022-12-23T16:56:12.715Z,61.50
2022-12-23T16:58:40.277Z,53.00
2022-12-23T17:01:18.051Z,49.88
2022-12-23T17:03:45.497Z,53.33
2022-12-23T17:06:15.488Z,56.67
2022-12-23T17:08:43.306Z,49.45
2022-12-23T17:11:18.457Z,84.65
2022-12-23T17:13:45.989Z,73.72
2022-12-23T17:16:16.139Z,83.13
2022-12-23T17:18:43.850Z,68.00
2022-12-23T17:21:20.500Z,46.08
2022-12-23T17:23:49.131Z,31.50
2022-12-23T17:26:16.940Z,28.00
2022-12-23T17:28:44.175Z,22.00
2022-12-23T17:31:15.509Z,18.67
2022-12-23T17:33:45.391Z,10.48
2022-12-23T17:36:14.924Z,9.55
2022-12-23T17:38:42.544Z,13.95
2022-12-23T17:41:29.826Z,24.20
2022-12-23T17:43:57.812Z,22.88
2022-12-23T17:46:26.749Z,16.50
2022-12-23T17:48:54.305Z,19.88
2022-12-23T17:51:23.258Z,17.60
2022-12-23T17:53:57.640Z,20.73
2022-12-23T17:56:28.735Z,16.70
2022-12-23T17:58:56.178Z,18.30
2022-12-23T18:01:29.866Z,12.20
2022-12-23T18:03:59.299Z,7.82
2022-12-23T18:06:29.026Z,14.70
2022-12-23T18:08:59.343Z,9.30
2022-12-23T18:11:53.379Z,16.13
2022-12-23T18:14:29.013Z,25.30
2022-12-23T18:16:56.906Z,22.83
2022-12-23T18:19:24.932Z,35.08
2022-12-23T18:21:52.865Z,21.17
2022-12-23T18:24:20.087Z,31.80
2022-12-23T18:26:47.805Z,21.52
2022-12-23T18:29:15.131Z,15.50
2022-12-23T18:31:51.495Z,18.25
2022-12-23T18:34:21.329Z,29.70
2022-12-23T18:36:51.955Z,23.90
2022-12-23T18:39:20.266Z,15.30
2022-12-23T18:41:48.220Z,16.23
2022-12-23T18:44:19.887Z,11.32
2022-12-23T18:46:48.348Z,10.80
2022-12-23T18:49:15.658Z,12.95
2022-12-23T18:51:43.240Z,14.15
2022-12-23T18:54:15.231Z,21.17
2022-12-23T18:56:43.563Z,17.35
2022-12-23T18:59:24.342Z,15.75
2022-12-23T19:01:57.615Z,12.70
2022-12-23T19:04:26.544Z,16.08
2022-12-23T19:06:55.497Z,10.67
2022-12-23T19:09:24.648Z,12.70
2022-12-23T19:11:53.533Z,24.13
2022-12-23T19:14:21.143Z,15.57
2022-12-23T19:16:51.920Z,14.45
2022-12-23T19:19:21.045Z,12.27
2022-12-23T19:21:48.907Z,12.68
2022-12-23T19:24:16.311Z,14.00
2022-12-23T19:26:44.300Z,13.35
2022-12-23T19:29:12.045Z,16.00
2022-12-23T19:31:39.873Z,15.55
2022-12-23T19:34:14.351Z,73.00
2022-12-23T19:36:43.527Z,360.63
2022-12-23T19:39:16.384Z,518.17
2022-12-23T19:41:45.275Z,416.95
2022-12-23T19:44:12.686Z,418.60
2022-12-23T19:46:40.446Z,660.15
2022-12-23T19:49:08.511Z,622.75
2022-12-23T19:54:05.086Z,281.50
2022-12-23T19:56:32.920Z,119.18
2022-12-23T19:59:00.644Z,47.00
2022-12-23T20:01:29.026Z,43.95
2022-12-23T20:03:57.098Z,42.85
2022-12-23T20:06:29.447Z,49.05
2022-12-23T20:09:00.981Z,43.88
2022-12-23T20:11:32.099Z,39.33
2022-12-23T20:14:01.683Z,40.78
2022-12-23T20:16:31.297Z,35.08
2022-12-23T20:18:58.900Z,23.67
2022-12-23T20:21:27.249Z,27.70
2022-12-23T20:23:56.032Z,24.88
2022-12-23T20:26:24.564Z,34.28
2022-12-23T20:28:53.089Z,38.58
2022-12-23T20:31:22.667Z,41.15
2022-12-23T20:33:52.198Z,44.10
2022-12-23T20:36:23.815Z,45.40
2022-12-23T20:38:52.331Z,65.90
2022-12-23T20:41:25.488Z,59.03
2022-12-23T20:44:31.801Z,64.47
2022-12-23T20:46:44.272Z,81.07
2022-12-23T20:49:12.147Z,78.50
2022-12-23T20:51:39.660Z,111.65
2022-12-23T20:54:07.384Z,98.20
2022-12-23T20:56:35.331Z,106.10
2022-12-23T20:59:04.418Z,96.13
2022-12-23T21:01:39.214Z,87.10
2022-12-23T21:04:11.848Z,84.20
2022-12-23T21:06:40.690Z,162.10
2022-12-23T21:09:12.027Z,111.53
2022-12-23T21:11:43.265Z,146.85
2022-12-23T21:14:11.957Z,107.72
2022-12-23T21:16:40.336Z,90.85
2022-12-23T21:19:12.873Z,111.72
2022-12-23T21:21:41.266Z,88.05
2022-12-23T21:24:10.733Z,62.63
2022-12-23T21:26:39.209Z,67.85
2022-12-23T21:29:08.322Z,121.10
2022-12-23T21:31:39.510Z,98.80
2022-12-23T21:34:07.564Z,59.45
2022-12-23T21:36:37.912Z,56.45
2022-12-23T21:39:07.297Z,41.45
2022-12-23T21:41:38.758Z,62.25
2022-12-23T21:44:07.101Z,68.20
2022-12-23T21:46:35.591Z,56.38
2022-12-23T21:49:03.642Z,53.08
2022-12-23T21:51:41.992Z,51.17
2022-12-23T21:54:11.580Z,28.65
2022-12-23T21:56:40.848Z,29.90
2022-12-23T21:59:12.596Z,23.98
2022-12-23T22:01:41.768Z,23.05
2022-12-23T22:04:09.285Z,16.10
2022-12-23T22:06:40.413Z,14.82
2022-12-23T22:09:08.044Z,32.03
2022-12-23T22:11:37.120Z,29.83
2022-12-23T22:14:07.108Z,32.22
2022-12-23T22:16:35.800Z,27.55
2022-12-23T22:19:05.069Z,22.50
2022-12-23T22:21:34.609Z,16.73
2022-12-23T22:24:03.207Z,20.05
2022-12-23T22:26:33.031Z,17.47
2022-12-23T22:29:03.592Z,15.75
2022-12-23T22:31:34.500Z,14.88
2022-12-23T22:34:02.270Z,12.00
2022-12-23T22:36:30.470Z,16.25
2022-12-23T22:39:00.156Z,12.13
2022-12-23T22:41:29.885Z,12.57
2022-12-23T22:43:58.231Z,17.38
2022-12-23T22:46:26.757Z,18.27
2022-12-23T22:48:54.959Z,17.73
2022-12-23T22:51:25.999Z,16.85
2022-12-23T22:53:53.763Z,21.70
2022-12-23T22:56:23.430Z,25.60
2022-12-23T22:58:51.877Z,28.00
2022-12-23T23:01:26.519Z,19.83
2022-12-23T23:03:58.901Z,25.98
2022-12-23T23:06:32.157Z,15.73
2022-12-23T23:08:59.990Z,16.92
2022-12-23T23:11:28.142Z,16.77
2022-12-23T23:13:55.917Z,16.25
2022-12-23T23:16:24.412Z,13.13
2022-12-23T23:18:52.793Z,15.52
2022-12-23T23:21:21.048Z,13.20
2022-12-23T23:23:48.460Z,15.23
2022-12-23T23:26:17.052Z,15.35
2022-12-23T23:28:44.523Z,17.90
2022-12-23T23:33:59.796Z,14.40
2022-12-23T23:36:27.359Z,14.75
2022-12-23T23:38:54.571Z,19.67
2022-12-23T23:41:23.740Z,41.15
2022-12-23T23:43:52.064Z,86.85
2022-12-23T23:46:19.946Z,74.30
2022-12-23T23:48:47.210Z,92.05
2022-12-23T23:51:14.661Z,89.10
2022-12-23T23:53:41.866Z,69.80
2022-12-23T23:56:09.601Z,75.45
2022-12-23T23:58:37.742Z,79.25
